Allendale, NJ

6:55 PM EST on January 26, 2015 (GMT -0500)
ROSE | Change Station
CLOSE
Current Station
Personal Weather Station
Location: RAMSEY, NJ
Elevation: 375 ft
Nearby Weather Stations
Active Advisory: Blizzard Warning Active Notice: Public Information Statement

Elev 375 ft 41.04 °N, 74.14 °W | Updated 24 seconds ago

Snow
Snow
24.6 °F
Feels Like 20 °F
N
3.6
Wind Variable Wind from ENE
Gusts 3.6 mph

Today
High -- | Low -- °F
--% Chance of Precip.
Yesterday
High -- | Low -- °F
Precip. -- in
7:12 AM 5:05 PM
Waxing Crescent, 48% visible
Pressure 29.89 in
Visibility 6.0 miles
Clouds Overcast 1800 ft
Windchill 20 °F
Dew Point 6 °F
Humidity 44%
Rainfall 0.00 in
Snow Depth Not available.
UV 0 out of 12
Pollen .10 out of 12
Air Quality Not available.
Flu Activity Not available.
METAR KCDW 262253Z AUTO 06010KT 6SM -SN OVC018 M04/M07 A2986 RMK AO2 SLP120 P0000 T10441072 TSNO

More Conditions Fewer Conditions

Pressure 29.89 in
Visibility 6.0 miles
Clouds Overcast 1800 ft
Windchill 20 °F
Dew Point 6 °F
Humidity 44%
Rainfall 0.00 in
Snow Depth Not available.
UV 0 out of 12
Pollen .10 out of 12
Air Quality Not available.
Flu Activity Not available.
METAR KCDW 262253Z AUTO 06010KT 6SM -SN OVC018 M04/M07 A2986 RMK AO2 SLP120 P0000 T10441072 TSNO

More Conditions Fewer Conditions

10-Day Weather Forecast

Almanac

Astronomy

Jan. 26, 2015 Rise Set
Actual Time
Civil Twilight
Nautical Twilight
Astronomical Twilight
Moon
Length of Visible Light
Length of Day
Tomorrow will be .
, % of the Moon is Illuminated

Today's Extremes

State Highs State Lows

Community

WunderPhotos

Upload Photos

1,790,408 photos uploaded!

WunderBlogs® & News

Nearby

Air Quality

  Air Quality AQ Index Pollutant
Not available.

Snow Depth

Station Depth Elevation

Earthquake Activity

City Distance Mag. Time & Date
Minimum magnitude displayed is 2.5.

Coastal Water Temperatures

Place Temperature

Nearby Weather Stations